createdAt,value
2022-10-18T00:02:16.092Z,54.72
2022-10-18T00:04:42.845Z,54.66
2022-10-18T00:07:09.466Z,54.66
2022-10-18T00:09:36.224Z,54.44
2022-10-18T00:12:03.104Z,54.45
2022-10-18T00:14:30.111Z,54.23
2022-10-18T00:16:56.817Z,54.17
2022-10-18T00:19:25.979Z,54.25
2022-10-18T00:21:55.256Z,54.49
2022-10-18T00:24:21.935Z,54.35
2022-10-18T00:26:48.677Z,54.20
2022-10-18T00:29:16.515Z,54.13
2022-10-18T00:31:44.060Z,54.38
2022-10-18T00:34:13.621Z,54.38
2022-10-18T00:36:40.748Z,54.12
2022-10-18T00:39:08.255Z,54.46
2022-10-18T00:41:36.368Z,54.01
2022-10-18T00:44:05.648Z,54.29
2022-10-18T00:46:34.764Z,54.21
2022-10-18T00:49:08.270Z,54.50
2022-10-18T00:51:40.196Z,54.17
2022-10-18T00:54:07.049Z,54.29
2022-10-18T00:56:34.078Z,54.33
2022-10-18T00:59:00.897Z,54.25
2022-10-18T01:01:28.601Z,54.06
2022-10-18T01:03:56.164Z,54.38
2022-10-18T01:06:22.926Z,54.33
2022-10-18T01:09:10.270Z,54.21
2022-10-18T01:12:16.196Z,54.06
2022-10-18T01:15:17.779Z,54.23
2022-10-18T01:18:07.742Z,53.92
2022-10-18T01:21:12.212Z,54.33
2022-10-18T01:23:50.919Z,54.29
2022-10-18T01:26:23.584Z,54.02
2022-10-18T01:29:10.593Z,54.09
2022-10-18T01:31:59.529Z,54.12
2022-10-18T01:34:29.179Z,53.97
2022-10-18T01:36:57.038Z,54.16
2022-10-18T01:39:43.784Z,54.56
2022-10-18T01:42:12.379Z,54.12
2022-10-18T01:44:39.403Z,54.47
2022-10-18T01:47:07.848Z,54.50
2022-10-18T01:49:34.559Z,54.31
2022-10-18T01:52:01.348Z,54.49
2022-10-18T01:54:32.670Z,54.52
2022-10-18T01:57:08.272Z,54.33
2022-10-18T01:59:46.460Z,54.65
2022-10-18T02:02:27.071Z,54.66
2022-10-18T02:04:56.891Z,54.25
2022-10-18T02:07:30.204Z,54.58
2022-10-18T02:10:19.249Z,54.44
2022-10-18T02:12:47.006Z,54.49
2022-10-18T02:15:18.064Z,54.67
2022-10-18T02:17:46.484Z,54.30
2022-10-18T02:20:16.991Z,54.53
2022-10-18T02:22:45.968Z,54.46
2022-10-18T02:25:18.288Z,54.93
2022-10-18T02:27:45.097Z,54.70
2022-10-18T02:30:12.416Z,54.54
2022-10-18T02:32:45.059Z,54.69
2022-10-18T02:35:17.772Z,54.98
2022-10-18T02:37:47.130Z,54.94
2022-10-18T02:40:14.080Z,54.57
2022-10-18T02:42:49.071Z,54.94
2022-10-18T02:45:16.884Z,54.78
2022-10-18T02:47:43.849Z,54.99
2022-10-18T02:50:10.912Z,55.09
2022-10-18T02:52:37.965Z,54.98
2022-10-18T02:55:05.873Z,54.65
2022-10-18T02:57:32.942Z,54.68
2022-10-18T03:00:00.090Z,54.72
2022-10-18T03:02:26.788Z,54.87
2022-10-18T03:04:53.619Z,54.75
2022-10-18T03:07:20.261Z,55.13
2022-10-18T03:09:46.991Z,55.12
2022-10-18T03:12:13.659Z,55.06
2022-10-18T03:14:40.422Z,55.37
2022-10-18T03:17:07.074Z,54.88
2022-10-18T03:19:33.927Z,54.91
2022-10-18T03:22:00.582Z,54.92
2022-10-18T03:24:27.960Z,55.15
2022-10-18T03:26:54.651Z,55.11
2022-10-18T03:29:21.327Z,55.00
2022-10-18T03:31:47.976Z,55.25
2022-10-18T03:34:15.837Z,55.44
2022-10-18T03:36:42.527Z,55.27
2022-10-18T03:39:10.984Z,55.32
2022-10-18T03:41:37.628Z,55.30
2022-10-18T03:44:04.450Z,55.71
2022-10-18T03:46:31.211Z,55.71
2022-10-18T03:48:57.965Z,55.68
2022-10-18T03:51:24.700Z,55.38
2022-10-18T03:53:51.417Z,55.48
2022-10-18T03:56:18.082Z,55.73
2022-10-18T03:58:44.753Z,55.57
2022-10-18T04:01:14.478Z,56.01
2022-10-18T04:03:41.201Z,55.93
2022-10-18T04:06:09.901Z,55.90
2022-10-18T04:08:36.658Z,55.96
2022-10-18T04:11:11.227Z,55.64
2022-10-18T04:13:38.605Z,56.00
2022-10-18T04:16:05.412Z,55.79
2022-10-18T04:18:32.182Z,55.72
2022-10-18T04:20:58.990Z,55.71
2022-10-18T04:23:25.716Z,56.11
2022-10-18T04:25:52.483Z,56.19
2022-10-18T04:28:19.241Z,56.27
2022-10-18T04:30:52.119Z,56.02
2022-10-18T04:33:19.729Z,56.16
2022-10-18T04:35:46.571Z,55.81
2022-10-18T04:38:14.414Z,55.84
2022-10-18T04:40:41.065Z,56.02
2022-10-18T04:43:08.085Z,55.90
2022-10-18T04:45:34.838Z,56.04
2022-10-18T04:48:01.664Z,56.28
2022-10-18T04:50:28.492Z,56.41
2022-10-18T04:52:57.052Z,56.01
2022-10-18T04:55:23.743Z,56.53
2022-10-18T04:57:50.491Z,56.53
2022-10-18T05:00:17.426Z,56.08
2022-10-18T05:02:44.128Z,56.28
2022-10-18T05:05:13.921Z,56.59
2022-10-18T05:07:40.994Z,56.64
2022-10-18T05:10:08.108Z,56.59
2022-10-18T05:12:35.254Z,56.56
2022-10-18T05:15:02.061Z,56.46
2022-10-18T05:17:29.843Z,56.19
2022-10-18T05:19:56.837Z,56.73
2022-10-18T05:22:23.579Z,56.24
2022-10-18T05:24:50.901Z,56.75
2022-10-18T05:27:17.576Z,56.48
2022-10-18T05:29:44.358Z,56.21
2022-10-18T05:32:10.998Z,56.77
2022-10-18T05:34:37.814Z,56.76
2022-10-18T05:37:04.652Z,56.50
2022-10-18T05:39:31.430Z,56.77
2022-10-18T05:41:58.196Z,56.64
2022-10-18T05:44:24.903Z,56.97
2022-10-18T05:46:51.828Z,56.46
2022-10-18T05:49:18.591Z,56.78
2022-10-18T05:51:45.369Z,56.83
2022-10-18T05:54:12.724Z,56.74
2022-10-18T05:56:39.919Z,56.68
2022-10-18T05:59:10.426Z,56.74
2022-10-18T06:01:37.355Z,56.65
2022-10-18T06:04:05.456Z,56.94
2022-10-18T06:06:33.524Z,56.70
2022-10-18T06:09:00.348Z,57.20
2022-10-18T06:11:27.106Z,57.11
2022-10-18T06:13:53.832Z,57.37
2022-10-18T06:16:22.236Z,57.40
2022-10-18T06:18:59.921Z,57.04
2022-10-18T06:21:27.130Z,57.40
2022-10-18T06:23:55.972Z,57.43
2022-10-18T06:26:23.298Z,57.22
2022-10-18T06:28:50.315Z,57.26
2022-10-18T06:31:17.659Z,57.37
2022-10-18T06:33:46.107Z,57.11
2022-10-18T06:36:22.090Z,57.21
2022-10-18T06:38:49.131Z,57.23
2022-10-18T06:41:16.140Z,57.06
2022-10-18T06:43:44.919Z,57.30
2022-10-18T06:46:11.606Z,57.32
2022-10-18T06:48:39.151Z,57.48
2022-10-18T06:51:07.128Z,57.66
2022-10-18T06:53:43.784Z,57.71
2022-10-18T06:56:14.336Z,57.77
2022-10-18T06:58:41.226Z,57.38
2022-10-18T07:01:16.115Z,57.65
2022-10-18T07:03:44.529Z,57.44
2022-10-18T07:06:15.009Z,57.53
2022-10-18T07:08:42.251Z,57.51
2022-10-18T07:11:14.435Z,57.52
2022-10-18T07:13:41.217Z,57.40
2022-10-18T07:16:15.783Z,57.64
2022-10-18T07:18:47.776Z,57.94
2022-10-18T07:21:15.802Z,57.86
2022-10-18T07:23:45.971Z,57.84
2022-10-18T07:26:21.280Z,57.65
2022-10-18T07:28:51.286Z,57.92
2022-10-18T07:31:18.410Z,57.94
2022-10-18T07:33:47.746Z,57.67
2022-10-18T07:36:14.593Z,57.58
2022-10-18T07:38:41.617Z,57.61
2022-10-18T07:41:11.579Z,57.49
2022-10-18T07:43:53.131Z,58.02
2022-10-18T07:46:23.071Z,57.53
2022-10-18T07:48:50.361Z,57.84
2022-10-18T07:51:18.455Z,57.66
2022-10-18T07:53:45.226Z,57.89
2022-10-18T07:56:16.907Z,57.89
2022-10-18T07:58:44.576Z,57.73
2022-10-18T08:01:11.666Z,57.58
2022-10-18T08:03:39.065Z,57.64
2022-10-18T08:06:09.202Z,57.69
2022-10-18T08:08:37.284Z,57.70
2022-10-18T08:11:06.228Z,57.67
2022-10-18T08:13:33.254Z,57.27
2022-10-18T08:16:01.578Z,57.07
2022-10-18T08:18:28.324Z,57.22
2022-10-18T08:20:54.968Z,57.13
2022-10-18T08:23:21.839Z,56.78
2022-10-18T08:25:48.602Z,57.07
2022-10-18T08:28:17.364Z,56.80
2022-10-18T08:30:44.154Z,56.53
2022-10-18T08:33:11.094Z,56.43
2022-10-18T08:35:37.931Z,56.71
2022-10-18T08:38:04.714Z,56.54
2022-10-18T08:40:33.885Z,55.80
2022-10-18T08:43:29.502Z,56.03
2022-10-18T08:45:56.343Z,56.29
2022-10-18T08:48:45.010Z,55.90
2022-10-18T08:51:32.564Z,56.18
2022-10-18T08:54:14.403Z,55.71
2022-10-18T08:56:43.710Z,56.05
2022-10-18T08:59:11.709Z,55.52
2022-10-18T09:01:44.721Z,55.51
2022-10-18T09:04:30.922Z,55.65
2022-10-18T09:07:00.538Z,55.20
2022-10-18T09:09:27.118Z,55.07
2022-10-18T09:12:25.110Z,55.53
2022-10-18T09:15:04.770Z,55.43
2022-10-18T09:17:37.622Z,55.18
2022-10-18T09:20:25.683Z,55.62
2022-10-18T09:22:53.368Z,55.47
2022-10-18T09:25:21.826Z,55.35
2022-10-18T09:28:14.612Z,54.86
2022-10-18T09:31:01.715Z,55.01
2022-10-18T09:33:44.116Z,54.72
2022-10-18T09:36:16.981Z,54.78
2022-10-18T09:38:46.897Z,54.81
2022-10-18T09:41:23.592Z,54.97
2022-10-18T09:44:08.987Z,54.59
2022-10-18T09:46:41.643Z,54.39
2022-10-18T09:49:16.375Z,54.82
2022-10-18T09:51:43.593Z,54.75
2022-10-18T09:54:28.611Z,54.56
2022-10-18T09:57:10.319Z,54.48
2022-10-18T09:59:46.988Z,54.63
2022-10-18T10:02:16.448Z,54.63
2022-10-18T10:04:43.560Z,54.31
2022-10-18T10:07:20.237Z,54.59
2022-10-18T10:09:49.563Z,54.54
2022-10-18T10:12:26.292Z,54.10
2022-10-18T10:14:53.278Z,54.04
2022-10-18T10:17:26.289Z,53.93
2022-10-18T10:20:02.108Z,54.23
2022-10-18T10:22:37.394Z,53.84
2022-10-18T10:25:04.726Z,53.74
2022-10-18T10:27:35.952Z,53.47
2022-10-18T10:30:07.335Z,53.38
2022-10-18T10:32:47.310Z,53.27
2022-10-18T10:35:42.306Z,52.75
2022-10-18T10:38:26.772Z,52.58
2022-10-18T10:40:53.656Z,52.70
2022-10-18T10:43:42.782Z,52.80
2022-10-18T10:46:19.050Z,52.95
2022-10-18T10:49:08.412Z,52.35
2022-10-18T10:51:41.365Z,52.50
2022-10-18T10:54:23.880Z,52.22
2022-10-18T10:56:55.846Z,52.44
2022-10-18T10:59:24.682Z,52.69
2022-10-18T11:02:14.092Z,52.37
2022-10-18T11:04:42.274Z,52.36
2022-10-18T11:07:39.118Z,52.53
2022-10-18T11:10:14.806Z,52.18
2022-10-18T11:12:45.871Z,52.63
2022-10-18T11:15:24.877Z,52.33
2022-10-18T11:18:05.047Z,52.72
2022-10-18T11:20:42.131Z,52.49
2022-10-18T11:23:12.793Z,52.89
2022-10-18T11:25:58.676Z,52.53
2022-10-18T11:28:45.654Z,52.84
2022-10-18T11:31:17.574Z,52.47
2022-10-18T11:34:10.115Z,52.75
2022-10-18T11:37:27.014Z,52.36
2022-10-18T11:40:07.941Z,52.50
2022-10-18T11:42:40.731Z,51.88
2022-10-18T11:45:26.298Z,52.09
2022-10-18T11:48:05.863Z,51.92
2022-10-18T11:50:48.457Z,51.92
2022-10-18T11:53:50.981Z,52.52
2022-10-18T11:56:25.248Z,52.30
2022-10-18T11:59:20.197Z,52.08
2022-10-18T12:01:52.843Z,52.15
2022-10-18T12:04:22.836Z,52.00
2022-10-18T12:06:52.543Z,51.78
2022-10-18T12:09:22.203Z,51.78
2022-10-18T12:12:14.794Z,51.89
2022-10-18T12:14:44.206Z,51.49
2022-10-18T12:20:22.128Z,51.29
2022-10-18T12:23:17.936Z,51.37
2022-10-18T12:25:56.547Z,51.20
2022-10-18T12:28:46.079Z,50.84
2022-10-18T12:31:20.976Z,50.82
2022-10-18T12:33:55.662Z,50.90
2022-10-18T12:36:22.328Z,51.13
2022-10-18T12:38:59.132Z,51.25
2022-10-18T12:41:28.906Z,51.13
2022-10-18T12:44:26.916Z,51.06
2022-10-18T12:47:02.418Z,51.23
2022-10-18T12:49:31.889Z,51.51
2022-10-18T12:52:04.382Z,51.30
2022-10-18T12:54:36.223Z,51.14
2022-10-18T12:57:06.671Z,51.12
2022-10-18T12:59:35.270Z,51.04
2022-10-18T13:02:08.260Z,51.38
2022-10-18T13:04:35.429Z,50.78
2022-10-18T13:07:08.331Z,51.25
2022-10-18T13:09:40.190Z,51.01
2022-10-18T13:12:09.776Z,50.94
2022-10-18T13:14:59.087Z,50.73
2022-10-18T13:17:49.563Z,50.39
2022-10-18T13:20:37.920Z,50.79
2022-10-18T13:23:32.729Z,50.25
2022-10-18T13:26:28.117Z,50.29
2022-10-18T13:29:13.913Z,49.98
2022-10-18T13:31:45.330Z,50.13
2022-10-18T13:34:22.434Z,49.72
2022-10-18T13:37:19.853Z,50.01
2022-10-18T13:39:46.855Z,49.86
2022-10-18T13:42:16.515Z,49.91
2022-10-18T13:44:44.784Z,49.44
2022-10-18T13:47:16.665Z,49.23
2022-10-18T13:50:12.782Z,49.11
2022-10-18T13:53:09.843Z,49.27
2022-10-18T13:56:12.083Z,49.00
2022-10-18T13:59:14.287Z,49.01
2022-10-18T14:02:12.787Z,48.86
2022-10-18T14:05:10.616Z,49.28
2022-10-18T14:07:43.276Z,48.99
2022-10-18T14:10:26.760Z,48.91
2022-10-18T14:13:05.127Z,48.95
2022-10-18T14:15:36.741Z,49.13
2022-10-18T14:18:16.711Z,49.03
2022-10-18T14:21:01.366Z,49.44
2022-10-18T14:23:42.044Z,49.79
2022-10-18T14:26:14.742Z,49.97
2022-10-18T14:28:59.166Z,50.01
2022-10-18T14:31:26.932Z,49.89
2022-10-18T14:33:58.114Z,49.80
2022-10-18T14:36:29.259Z,50.17
2022-10-18T14:39:04.147Z,50.28
2022-10-18T14:41:35.136Z,50.37
2022-10-18T14:44:14.244Z,50.29
2022-10-18T14:46:46.739Z,50.35
2022-10-18T14:49:14.219Z,50.58
2022-10-18T14:51:42.399Z,50.70
2022-10-18T14:54:38.452Z,51.07
2022-10-18T14:57:06.126Z,51.68
2022-10-18T14:59:35.029Z,51.60
2022-10-18T15:02:05.161Z,52.11
2022-10-18T15:04:34.454Z,52.06
2022-10-18T15:07:03.497Z,52.42
2022-10-18T15:09:32.065Z,52.54
2022-10-18T15:12:00.661Z,53.18
2022-10-18T15:14:27.852Z,53.37
2022-10-18T15:17:00.391Z,53.35
2022-10-18T15:19:29.637Z,53.36
2022-10-18T15:25:11.824Z,54.09
2022-10-18T15:27:39.730Z,53.87
2022-10-18T15:30:08.693Z,54.40
2022-10-18T15:32:35.685Z,53.85
2022-10-18T15:35:13.591Z,54.41
2022-10-18T15:37:42.784Z,54.75
2022-10-18T15:40:31.740Z,54.85
2022-10-18T15:43:00.824Z,54.65
2022-10-18T15:45:34.702Z,54.75
2022-10-18T15:48:09.371Z,54.96
2022-10-18T15:50:55.539Z,55.31
2022-10-18T15:53:28.158Z,54.93
2022-10-18T15:56:30.146Z,55.33
2022-10-18T15:58:57.622Z,55.47
2022-10-18T16:01:32.570Z,55.41
2022-10-18T16:04:00.095Z,55.25
2022-10-18T16:06:26.874Z,55.80
2022-10-18T16:08:53.892Z,55.67
2022-10-18T16:11:23.354Z,56.08
2022-10-18T16:13:52.161Z,56.24
2022-10-18T16:16:26.827Z,56.44
2022-10-18T16:18:54.054Z,56.11
2022-10-18T16:21:41.169Z,56.13
2022-10-18T16:24:08.115Z,56.32
2022-10-18T16:26:35.301Z,56.49
2022-10-18T16:29:02.220Z,56.86
2022-10-18T16:31:31.862Z,57.20
2022-10-18T16:33:58.999Z,57.37
2022-10-18T16:36:29.154Z,57.30
2022-10-18T16:38:57.415Z,56.89
2022-10-18T16:41:24.668Z,57.38
2022-10-18T16:43:51.663Z,56.92
2022-10-18T16:46:19.491Z,56.84
2022-10-18T16:48:47.155Z,56.86
2022-10-18T16:51:13.951Z,57.29
2022-10-18T16:53:40.688Z,57.20
2022-10-18T16:56:13.859Z,57.54
2022-10-18T16:58:41.351Z,57.62
2022-10-18T17:01:11.763Z,57.71
2022-10-18T17:03:38.530Z,57.39
2022-10-18T17:06:06.064Z,57.83
2022-10-18T17:08:33.724Z,57.64
2022-10-18T17:11:02.090Z,57.69
2022-10-18T17:13:28.983Z,58.21
2022-10-18T17:15:55.729Z,58.23
2022-10-18T17:18:26.562Z,58.28
2022-10-18T17:20:53.527Z,58.77
2022-10-18T17:23:20.210Z,58.78
2022-10-18T17:25:59.120Z,58.77
2022-10-18T17:28:32.051Z,58.33
2022-10-18T17:30:58.791Z,58.17
2022-10-18T17:33:25.509Z,58.54
2022-10-18T17:35:52.139Z,58.61
2022-10-18T17:38:18.831Z,58.42
2022-10-18T17:40:45.506Z,58.10
2022-10-18T17:43:13.737Z,58.18
2022-10-18T17:45:51.221Z,58.56
2022-10-18T17:48:18.196Z,58.25
2022-10-18T17:50:45.224Z,57.88
2022-10-18T17:53:13.161Z,57.98
2022-10-18T17:55:40.608Z,57.72
2022-10-18T17:58:07.558Z,58.10
2022-10-18T18:00:34.274Z,57.58
2022-10-18T18:03:01.158Z,57.79
2022-10-18T18:05:32.503Z,57.54
2022-10-18T18:08:03.575Z,57.70
2022-10-18T18:10:33.459Z,57.41
2022-10-18T18:13:00.779Z,57.55
2022-10-18T18:15:27.812Z,57.23
2022-10-18T18:17:57.441Z,57.36
2022-10-18T18:20:25.661Z,57.04
2022-10-18T18:22:52.464Z,57.27
2022-10-18T18:25:19.201Z,57.19
2022-10-18T18:27:45.954Z,56.68
2022-10-18T18:30:12.971Z,56.74
2022-10-18T18:32:39.689Z,56.61
2022-10-18T18:35:06.747Z,56.59
2022-10-18T18:37:33.442Z,56.91
2022-10-18T18:40:00.184Z,56.92
2022-10-18T18:42:26.867Z,56.81
2022-10-18T18:44:53.639Z,56.74
2022-10-18T18:47:23.244Z,56.69
2022-10-18T18:49:51.779Z,56.28
2022-10-18T18:52:21.721Z,56.11
2022-10-18T18:54:48.466Z,56.40
2022-10-18T18:57:15.197Z,56.39
2022-10-18T18:59:41.934Z,55.95
2022-10-18T19:02:09.955Z,56.39
2022-10-18T19:04:36.804Z,56.38
2022-10-18T19:07:06.409Z,56.27
2022-10-18T19:09:38.347Z,55.89
2022-10-18T19:12:05.607Z,55.76
2022-10-18T19:14:32.275Z,56.04
2022-10-18T19:16:59.410Z,55.74
2022-10-18T19:19:28.245Z,55.72
2022-10-18T19:21:57.401Z,56.01
2022-10-18T19:24:25.500Z,55.92
2022-10-18T19:26:57.184Z,55.54
2022-10-18T19:29:26.143Z,55.79
2022-10-18T19:31:54.810Z,55.42
2022-10-18T19:34:22.839Z,55.64
2022-10-18T19:36:50.012Z,55.74
2022-10-18T19:39:19.660Z,55.28
2022-10-18T19:41:47.553Z,55.48
2022-10-18T19:44:14.294Z,55.39
2022-10-18T19:46:43.224Z,55.57
2022-10-18T19:49:10.135Z,55.52
2022-10-18T19:51:37.261Z,55.33
2022-10-18T19:54:04.127Z,55.39
2022-10-18T19:56:31.083Z,54.91
2022-10-18T19:58:59.487Z,55.31
2022-10-18T20:01:28.085Z,54.86
2022-10-18T20:03:55.207Z,55.15
2022-10-18T20:06:22.291Z,54.87
2022-10-18T20:08:50.479Z,55.17
2022-10-18T20:11:20.215Z,54.94
2022-10-18T20:13:47.243Z,55.08
2022-10-18T20:16:15.171Z,55.06
2022-10-18T20:18:45.400Z,54.81
2022-10-18T20:21:13.934Z,54.86
2022-10-18T20:23:42.340Z,54.54
2022-10-18T20:26:20.438Z,54.82
2022-10-18T20:28:55.987Z,54.66
2022-10-18T20:31:25.095Z,54.49
2022-10-18T20:33:57.539Z,54.77
2022-10-18T20:36:25.223Z,54.53
2022-10-18T20:38:53.075Z,54.78
2022-10-18T20:41:41.176Z,54.43
2022-10-18T20:44:22.693Z,54.32
2022-10-18T20:46:50.711Z,54.63
2022-10-18T20:49:26.108Z,54.81
2022-10-18T20:51:54.828Z,54.55
2022-10-18T20:54:21.506Z,54.40
2022-10-18T20:56:48.200Z,54.21
2022-10-18T20:59:14.962Z,54.54
2022-10-18T21:01:41.852Z,54.63
2022-10-18T21:04:09.928Z,54.10
2022-10-18T21:06:40.942Z,54.48
2022-10-18T21:09:16.541Z,54.36
2022-10-18T21:11:45.270Z,53.87
2022-10-18T21:14:16.541Z,53.99
2022-10-18T21:16:43.810Z,54.51
2022-10-18T21:19:16.067Z,54.28
2022-10-18T21:21:44.476Z,54.45
2022-10-18T21:24:11.395Z,54.34
2022-10-18T21:26:38.185Z,54.01
2022-10-18T21:29:05.556Z,53.96
2022-10-18T21:31:37.488Z,54.08
2022-10-18T21:34:15.738Z,53.99
2022-10-18T21:36:43.862Z,54.36
2022-10-18T21:39:17.858Z,53.99
2022-10-18T21:41:45.130Z,53.88
2022-10-18T21:44:12.143Z,53.70
2022-10-18T21:46:39.493Z,53.73
2022-10-18T21:49:07.036Z,53.78
2022-10-18T21:51:33.924Z,53.89
2022-10-18T21:54:00.778Z,53.93
2022-10-18T21:56:32.551Z,53.99
2022-10-18T21:58:59.966Z,53.84
2022-10-18T22:01:34.867Z,53.56
2022-10-18T22:04:03.895Z,53.70
2022-10-18T22:06:36.820Z,53.67
2022-10-18T22:09:07.325Z,53.42
2022-10-18T22:11:43.459Z,53.50
2022-10-18T22:14:10.464Z,53.74
2022-10-18T22:16:37.148Z,53.43
2022-10-18T22:19:05.507Z,53.83
2022-10-18T22:21:32.539Z,53.36
2022-10-18T22:24:00.315Z,53.41
2022-10-18T22:26:29.527Z,53.80
2022-10-18T22:29:01.641Z,53.30
2022-10-18T22:31:31.339Z,53.50
2022-10-18T22:34:00.919Z,53.24
2022-10-18T22:36:27.715Z,53.15
2022-10-18T22:38:54.377Z,53.38
2022-10-18T22:41:21.149Z,53.55
2022-10-18T22:43:47.914Z,53.29
2022-10-18T22:46:15.327Z,53.77
2022-10-18T22:48:42.663Z,53.72
2022-10-18T22:51:10.151Z,53.70
2022-10-18T22:53:37.391Z,53.74
2022-10-18T22:56:04.519Z,53.74
2022-10-18T22:58:31.368Z,53.38
2022-10-18T23:01:02.677Z,53.68
2022-10-18T23:03:29.380Z,53.70
2022-10-18T23:05:56.170Z,53.44
2022-10-18T23:08:22.923Z,53.20
2022-10-18T23:10:53.541Z,53.23
2022-10-18T23:13:20.284Z,53.65
2022-10-18T23:15:46.921Z,53.47
2022-10-18T23:18:13.647Z,53.66
2022-10-18T23:20:40.311Z,53.73
2022-10-18T23:23:07.041Z,53.25
2022-10-18T23:25:37.074Z,53.24
2022-10-18T23:28:04.853Z,53.40
2022-10-18T23:30:31.684Z,53.28
2022-10-18T23:32:58.431Z,53.63
2022-10-18T23:35:25.071Z,53.12
2022-10-18T23:37:52.011Z,53.54
2022-10-18T23:40:18.831Z,53.54
2022-10-18T23:42:45.607Z,53.54
2022-10-18T23:45:12.308Z,53.18
2022-10-18T23:47:39.032Z,53.22
2022-10-18T23:50:06.101Z,53.55
2022-10-18T23:52:33.320Z,53.16
2022-10-18T23:54:59.983Z,53.15
2022-10-18T23:57:26.763Z,53.38
2022-10-18T23:59:53.396Z,53.38
